Time;durP1;ratioP1;P1;durP2;ratioP2;P2;SDS_P1;SDS_P2;PMS_P1;PMS_P2;Temp;Humidity;BMP_temperature;BMP_pressure;BME280_temperature;BME280_humidity;BME280_pressure;Samples;Min_cycle;Max_cycle;Signal;HPM_P1;HPM_P2
2022/03/02 00:02:42;;;;;;;9.98;7.03;;;16.20;41.40;15.30;102350.00;;;;5066457;28;20101;-64
2022/03/02 00:05:28;;;;;;;9.38;6.55;;;16.30;41.50;15.30;102333.00;;;;5046756;28;20063;-64
2022/03/02 00:08:14;;;;;;;9.38;6.68;;;16.20;41.40;15.30;102328.00;;;;5058986;28;20037;-64
2022/03/02 00:11:00;;;;;;;9.43;6.28;;;16.20;41.40;15.30;102331.00;;;;5041924;28;20043;-64
2022/03/02 00:13:46;;;;;;;11.60;7.45;;;16.20;41.40;15.30;102334.00;;;;5057432;28;20040;-64
2022/03/02 00:16:33;;;;;;;11.23;6.10;;;16.30;41.50;15.30;102331.00;;;;5047613;28;20044;-64
2022/03/02 00:19:19;;;;;;;11.48;7.07;;;16.20;41.50;15.30;102326.00;;;;5062195;28;20045;-64
2022/03/02 00:22:05;;;;;;;8.63;6.35;;;16.20;41.50;15.30;102327.00;;;;5063032;28;20033;-64
2022/03/02 00:24:51;;;;;;;10.38;6.18;;;16.20;41.50;15.30;102334.00;;;;5058461;28;20093;-64
2022/03/02 00:27:37;;;;;;;9.43;6.75;;;16.20;41.50;15.30;102320.00;;;;5060386;28;20160;-64
2022/03/02 00:30:26;;;;;;;10.00;6.57;;;16.20;41.50;15.30;102329.00;;;;5060002;28;20056;-64
2022/03/02 00:33:12;;;;;;;8.05;5.90;;;16.30;41.60;15.30;102332.00;;;;5053080;28;20079;-65
2022/03/02 00:35:58;;;;;;;9.73;6.65;;;16.20;41.60;15.30;102326.00;;;;5060390;28;20044;-64
2022/03/02 00:38:44;;;;;;;8.35;5.80;;;16.20;41.60;15.30;102325.00;;;;5065012;28;20043;-64
2022/03/02 00:41:31;;;;;;;10.85;7.45;;;16.20;41.60;15.30;102329.00;;;;5062883;28;20044;-64
2022/03/02 00:44:17;;;;;;;10.45;7.07;;;16.30;41.60;15.30;102320.00;;;;5058383;28;20052;-64
2022/03/02 00:47:04;;;;;;;11.25;7.10;;;16.20;41.60;15.30;102325.00;;;;5059409;28;20033;-64
2022/03/02 00:49:50;;;;;;;11.18;6.57;;;16.20;41.60;15.30;102319.00;;;;5065037;28;20032;-64
2022/03/02 00:52:36;;;;;;;9.07;6.53;;;16.20;41.60;15.30;102311.00;;;;5046747;28;20135;-64
2022/03/02 00:55:23;;;;;;;10.13;6.40;;;16.20;41.60;15.30;102314.00;;;;5063499;28;20449;-64
2022/03/02 00:58:09;;;;;;;9.05;6.03;;;16.20;41.60;15.30;102308.00;;;;5057712;28;20033;-64
2022/03/02 01:00:55;;;;;;;8.90;6.25;;;16.20;41.60;15.30;102309.00;;;;5056987;28;20086;-64
2022/03/02 01:03:41;;;;;;;6.95;5.80;;;16.20;41.60;15.30;102304.00;;;;5057364;28;20036;-64
2022/03/02 01:06:27;;;;;;;9.40;6.75;;;16.20;41.60;15.30;102305.00;;;;5056867;28;20051;-64
2022/03/02 01:09:13;;;;;;;9.13;6.57;;;16.20;41.70;15.30;102305.00;;;;5064125;28;20504;-63
2022/03/02 01:11:59;;;;;;;9.88;6.55;;;16.20;41.60;15.30;102298.00;;;;5062217;28;20036;-64
2022/03/02 01:14:45;;;;;;;10.32;6.68;;;16.20;41.70;15.30;102300.00;;;;5053909;28;20048;-64
2022/03/02 01:17:31;;;;;;;10.80;6.45;;;16.20;41.70;15.30;102300.00;;;;5060184;28;20131;-64
2022/03/02 01:20:17;;;;;;;8.90;6.43;;;16.30;41.70;15.30;102288.00;;;;5055608;28;20041;-64
2022/03/02 01:23:03;;;;;;;9.25;6.65;;;16.20;41.70;15.30;102291.00;;;;5057911;28;20033;-64
2022/03/02 01:25:49;;;;;;;9.40;6.00;;;16.20;41.70;15.30;102288.00;;;;5060484;28;20036;-64
2022/03/02 01:28:35;;;;;;;9.05;6.65;;;16.20;41.80;15.30;102280.00;;;;5062778;28;20032;-64
2022/03/02 01:31:26;;;;;;;10.63;6.20;;;16.20;41.80;15.30;102278.00;;;;5063348;28;20044;-64
2022/03/02 01:34:12;;;;;;;10.48;6.60;;;16.20;41.80;15.30;102274.00;;;;5043918;28;20414;-64
2022/03/02 01:36:58;;;;;;;9.25;6.35;;;16.20;41.80;15.30;102262.00;;;;5050890;28;20033;-64
2022/03/02 01:39:44;;;;;;;9.25;6.00;;;16.20;41.80;15.30;102266.00;;;;5049000;28;20044;-64
2022/03/02 01:42:30;;;;;;;9.27;6.47;;;16.20;41.80;15.30;102262.00;;;;5060828;28;20266;-64
2022/03/02 01:45:17;;;;;;;8.15;6.18;;;16.20;41.80;15.30;102267.00;;;;5058180;28;20091;-64
2022/03/02 01:48:04;;;;;;;10.85;6.50;;;16.20;41.90;15.30;102274.00;;;;5033839;28;20080;-63
2022/03/02 01:50:50;;;;;;;8.73;6.70;;;16.20;41.80;15.30;102274.00;;;;5044835;28;20040;-64
2022/03/02 01:53:36;;;;;;;8.02;5.95;;;16.20;41.80;15.30;102263.00;;;;5058654;28;20040;-64
2022/03/02 01:56:22;;;;;;;11.45;6.05;;;16.20;41.80;15.30;102259.00;;;;5054705;28;20517;-64
2022/03/02 01:59:08;;;;;;;9.18;6.72;;;16.20;41.80;15.30;102258.00;;;;5058008;28;20165;-64
2022/03/02 02:01:55;;;;;;;9.18;6.35;;;16.20;41.80;15.30;102252.00;;;;5045681;28;20312;-64
2022/03/02 02:04:41;;;;;;;9.75;6.60;;;16.20;41.80;15.30;102253.00;;;;5040403;28;20059;-64
2022/03/02 02:07:27;;;;;;;8.93;6.18;;;16.20;41.80;15.30;102246.00;;;;5057563;28;20037;-64
2022/03/02 02:10:13;;;;;;;10.52;6.90;;;16.20;41.90;15.30;102242.00;;;;5059053;28;20094;-64
2022/03/02 02:12:59;;;;;;;8.85;5.70;;;16.20;41.90;15.30;102249.00;;;;5049073;28;20040;-64
2022/03/02 02:15:45;;;;;;;9.45;6.38;;;16.20;41.80;15.20;102240.00;;;;5052242;28;20037;-64
2022/03/02 02:18:32;;;;;;;8.85;6.63;;;16.10;41.80;15.20;102235.00;;;;5062629;28;20072;-64
2022/03/02 02:21:19;;;;;;;9.95;6.40;;;16.10;41.80;15.20;102246.00;;;;5064103;28;20103;-64
2022/03/02 02:24:05;;;;;;;8.55;6.28;;;16.20;41.90;15.20;102238.00;;;;5054802;28;20037;-64
2022/03/02 02:26:51;;;;;;;8.15;6.25;;;16.10;41.80;15.20;102246.00;;;;5056371;28;20048;-64
2022/03/02 02:29:37;;;;;;;8.73;6.05;;;16.10;41.80;15.20;102241.00;;;;5063903;28;20040;-65
2022/03/02 02:32:23;;;;;;;9.25;6.43;;;16.10;41.80;15.20;102240.00;;;;5042900;28;20045;-64
2022/03/02 02:35:10;;;;;;;8.77;6.32;;;16.10;41.80;15.20;102236.00;;;;5058901;28;20288;-64
2022/03/02 02:37:57;;;;;;;9.80;6.47;;;16.20;41.90;15.20;102233.00;;;;5052759;28;20555;-64
2022/03/02 02:40:43;;;;;;;10.77;6.82;;;16.10;41.90;15.20;102240.00;;;;5045422;28;20037;-64
2022/03/02 02:43:29;;;;;;;10.75;7.13;;;16.10;41.90;15.20;102223.00;;;;5055897;28;20041;-64
2022/03/02 02:46:15;;;;;;;8.10;6.63;;;16.10;41.80;15.20;102230.00;;;;5063154;28;20039;-64
2022/03/02 02:49:02;;;;;;;10.00;7.05;;;16.10;41.80;15.20;102226.00;;;;5056609;28;20481;-64
2022/03/02 02:51:48;;;;;;;8.50;6.45;;;16.10;41.90;15.20;102223.00;;;;5055068;28;20052;-64
2022/03/02 02:54:34;;;;;;;9.60;7.35;;;16.10;41.90;15.20;102230.00;;;;5048223;28;20056;-64
2022/03/02 02:57:20;;;;;;;9.43;6.38;;;16.00;41.80;15.20;102228.00;;;;5059789;28;20048;-64
2022/03/02 03:00:11;;;;;;;9.70;6.85;;;16.10;41.90;15.20;102232.00;;;;5045449;28;20131;-64
2022/03/02 03:02:58;;;;;;;8.48;6.50;;;16.00;41.80;15.20;102226.00;;;;5049112;28;20043;-64
2022/03/02 03:05:47;;;;;;;9.88;6.78;;;16.00;41.80;15.20;102230.00;;;;5048790;28;20106;-64
2022/03/02 03:08:33;;;;;;;8.70;7.15;;;16.00;41.90;15.20;102233.00;;;;5067378;28;20175;-64
2022/03/02 03:11:19;;;;;;;10.88;7.03;;;16.00;41.90;15.10;102228.00;;;;5065308;28;20508;-64
2022/03/02 03:14:09;;;;;;;9.00;6.68;;;16.00;41.90;15.10;102223.00;;;;5059653;28;20042;-63
2022/03/02 03:16:55;;;;;;;8.40;6.72;;;16.00;41.90;15.10;102222.00;;;;5046535;28;20127;-64
2022/03/02 03:19:41;;;;;;;12.50;7.28;;;16.00;41.90;15.10;102218.00;;;;5060920;28;20044;-64
2022/03/02 03:22:27;;;;;;;9.35;6.43;;;16.00;41.90;15.10;102214.00;;;;5068162;28;20036;-64
2022/03/02 03:25:14;;;;;;;8.95;6.40;;;16.00;41.90;15.10;102213.00;;;;5059027;28;20037;-64
2022/03/02 03:28:00;;;;;;;9.35;6.57;;;16.00;42.00;15.10;102216.00;;;;5061530;28;20555;-64
2022/03/02 03:30:46;;;;;;;9.98;6.90;;;16.00;41.90;15.10;102213.00;;;;5066167;28;20052;-64
2022/03/02 03:33:32;;;;;;;8.98;6.47;;;16.00;41.90;15.10;102210.00;;;;5062030;28;20538;-64
2022/03/02 03:36:18;;;;;;;8.80;6.50;;;16.00;41.90;15.10;102217.00;;;;5066224;28;20071;-64
2022/03/02 03:39:04;;;;;;;10.27;7.13;;;16.00;42.00;15.10;102205.00;;;;5060094;28;20036;-64
2022/03/02 03:41:50;;;;;;;9.07;7.13;;;16.00;42.00;15.10;102201.00;;;;5047884;28;20033;-64
2022/03/02 03:44:37;;;;;;;10.25;6.80;;;15.90;41.90;15.10;102201.00;;;;5052604;28;20037;-64
2022/03/02 03:47:23;;;;;;;10.43;7.35;;;15.90;41.90;15.10;102209.00;;;;5043997;28;20040;-63
2022/03/02 03:50:09;;;;;;;10.98;7.10;;;16.00;42.00;15.10;102199.00;;;;5059998;28;20048;-64
2022/03/02 03:52:55;;;;;;;11.10;7.60;;;15.90;41.90;15.10;102209.00;;;;5037412;28;20033;-64
2022/03/02 03:55:41;;;;;;;10.00;6.45;;;15.90;42.00;15.10;102199.00;;;;5047769;28;20048;-64
2022/03/02 03:58:28;;;;;;;9.07;7.03;;;15.90;42.00;15.10;102202.00;;;;5065297;28;20041;-64
2022/03/02 04:01:14;;;;;;;10.63;6.97;;;15.90;42.00;15.10;102199.00;;;;5042546;28;20437;-64
2022/03/02 04:04:01;;;;;;;9.45;6.80;;;15.90;42.00;15.10;102200.00;;;;5041576;28;20399;-64
2022/03/02 04:06:47;;;;;;;11.40;6.57;;;15.90;42.00;15.10;102203.00;;;;5056069;28;20039;-64
2022/03/02 04:09:33;;;;;;;10.57;6.85;;;15.90;42.00;15.10;102199.00;;;;5048106;28;20505;-64
2022/03/02 04:12:19;;;;;;;9.25;6.55;;;15.90;42.00;15.00;102205.00;;;;5048517;28;20067;-64
2022/03/02 04:15:06;;;;;;;9.40;6.72;;;15.90;42.10;15.10;102207.00;;;;5059072;28;20037;-64
2022/03/02 04:17:52;;;;;;;10.05;7.20;;;15.90;42.10;15.10;102198.00;;;;5062667;28;20036;-64
2022/03/02 04:20:38;;;;;;;9.63;6.75;;;15.90;42.10;15.10;102197.00;;;;5049417;28;20119;-64
2022/03/02 04:23:25;;;;;;;9.15;6.50;;;15.90;42.10;15.10;102187.00;;;;5058287;28;20041;-64
2022/03/02 04:26:11;;;;;;;8.85;6.13;;;15.90;42.10;15.00;102187.00;;;;5065757;28;20572;-64
2022/03/02 04:28:57;;;;;;;8.52;6.70;;;15.90;42.10;15.10;102179.00;;;;5038012;28;20494;-64
2022/03/02 04:31:43;;;;;;;10.15;6.93;;;15.90;42.10;15.00;102184.00;;;;5059471;28;21119;-64
2022/03/02 04:34:29;;;;;;;9.13;6.88;;;15.90;42.10;15.00;102176.00;;;;5063190;28;20493;-64
2022/03/02 04:37:15;;;;;;;10.43;7.03;;;15.90;42.10;15.00;102176.00;;;;5057916;28;20056;-63
2022/03/02 04:40:03;;;;;;;8.63;6.60;;;15.90;42.10;15.00;102174.00;;;;5063808;28;20055;-64
2022/03/02 04:42:50;;;;;;;8.20;6.10;;;15.90;42.10;15.00;102166.00;;;;5046660;28;20066;-64
2022/03/02 04:45:36;;;;;;;8.55;6.32;;;15.90;42.10;15.00;102172.00;;;;5048307;28;20044;-64
2022/03/02 04:48:22;;;;;;;9.63;6.50;;;15.90;42.10;15.00;102172.00;;;;5055807;28;20048;-64
2022/03/02 04:51:08;;;;;;;9.88;6.75;;;15.90;42.10;15.00;102166.00;;;;5057820;28;20128;-64
2022/03/02 04:53:54;;;;;;;8.98;6.32;;;15.90;42.10;15.00;102173.00;;;;5057479;28;20099;-64
2022/03/02 04:56:41;;;;;;;10.20;6.80;;;15.90;42.10;15.00;102161.00;;;;5057944;28;20055;-64
2022/03/02 04:59:27;;;;;;;8.55;6.72;;;15.90;42.20;15.00;102167.00;;;;5042555;28;20045;-64
2022/03/02 05:02:13;;;;;;;8.05;5.97;;;15.90;42.20;15.00;102167.00;;;;5064772;28;20053;-64
2022/03/02 05:04:59;;;;;;;9.20;6.78;;;15.90;42.20;15.00;102159.00;;;;5045049;28;20032;-64
2022/03/02 05:07:45;;;;;;;9.70;6.53;;;15.90;42.20;15.00;102159.00;;;;5061143;28;20489;-64
2022/03/02 05:10:31;;;;;;;9.27;6.50;;;15.90;42.20;15.00;102155.00;;;;5058798;28;20041;-64
2022/03/02 05:13:17;;;;;;;8.63;6.15;;;15.90;42.20;15.00;102160.00;;;;5045556;28;20102;-64
2022/03/02 05:16:04;;;;;;;10.02;6.68;;;15.80;42.20;15.00;102154.00;;;;5061163;28;20404;-64
2022/03/02 05:18:50;;;;;;;8.85;6.30;;;15.90;42.20;15.00;102154.00;;;;5058876;28;20392;-64
2022/03/02 05:21:36;;;;;;;8.85;6.00;;;15.90;42.20;15.00;102157.00;;;;5058918;28;20032;-64
2022/03/02 05:24:22;;;;;;;9.50;6.90;;;15.90;42.20;15.00;102152.00;;;;5055146;28;20040;-64
2022/03/02 05:27:08;;;;;;;9.73;6.75;;;15.90;42.20;15.00;102156.00;;;;5061022;28;20032;-64
2022/03/02 05:29:54;;;;;;;7.88;6.10;;;15.90;42.20;15.00;102155.00;;;;5054833;28;20123;-64
2022/03/02 05:32:41;;;;;;;8.15;5.78;;;15.90;42.20;15.00;102148.00;;;;5053734;28;20603;-64
2022/03/02 05:35:27;;;;;;;9.77;6.90;;;15.90;42.10;15.00;102150.00;;;;5046582;28;20045;-64
2022/03/02 05:38:13;;;;;;;9.18;6.40;;;15.90;42.10;15.00;102146.00;;;;5060148;28;20044;-64
2022/03/02 05:40:59;;;;;;;9.82;6.63;;;15.90;42.10;15.00;102167.00;;;;5060903;28;20044;-64
2022/03/02 05:43:45;;;;;;;8.77;6.85;;;15.90;42.10;15.00;102163.00;;;;5063080;28;20039;-64
2022/03/02 05:46:31;;;;;;;9.73;6.57;;;15.90;42.10;15.00;102155.00;;;;5047545;28;20045;-64
2022/03/02 05:49:18;;;;;;;8.75;6.55;;;15.90;42.10;15.00;102149.00;;;;5060619;28;20048;-64
2022/03/02 05:52:04;;;;;;;9.10;6.60;;;15.90;42.10;15.00;102143.00;;;;5053343;28;20041;-64
2022/03/02 05:54:50;;;;;;;8.77;6.20;;;15.80;42.10;15.00;102144.00;;;;5025702;28;20090;-64
2022/03/02 05:57:36;;;;;;;9.32;6.43;;;15.90;42.10;15.00;102145.00;;;;5048295;28;20402;-64
2022/03/02 06:00:22;;;;;;;10.77;6.80;;;15.80;42.10;15.00;102142.00;;;;5059012;28;20080;-64
2022/03/02 06:03:08;;;;;;;8.70;6.55;;;15.90;42.10;15.00;102142.00;;;;5060437;28;20040;-64
2022/03/02 06:05:55;;;;;;;9.70;6.75;;;15.90;42.10;15.00;102144.00;;;;5055426;28;20090;-64
2022/03/02 06:08:42;;;;;;;8.90;6.63;;;15.80;42.00;15.00;102150.00;;;;5058405;28;20064;-64
2022/03/02 06:11:28;;;;;;;10.60;6.43;;;15.80;42.00;15.00;102149.00;;;;5057761;28;20075;-64
2022/03/02 06:14:15;;;;;;;10.32;6.63;;;15.80;42.00;15.00;102160.00;;;;5060121;28;20044;-64
2022/03/02 06:17:01;;;;;;;10.68;6.97;;;15.80;42.00;14.90;102157.00;;;;5056928;28;20044;-64
2022/03/02 06:19:47;;;;;;;9.07;6.15;;;15.80;42.00;14.90;102157.00;;;;5058875;28;20029;-64
2022/03/02 06:22:33;;;;;;;9.32;6.70;;;15.80;42.00;14.90;102150.00;;;;5060664;28;20516;-64
2022/03/02 06:25:20;;;;;;;10.23;6.68;;;15.80;42.00;14.90;102154.00;;;;5061056;28;20379;-64
2022/03/02 06:28:06;;;;;;;10.60;7.30;;;15.80;42.00;14.90;102161.00;;;;5061034;28;20037;-64
2022/03/02 06:30:52;;;;;;;10.88;6.88;;;15.80;42.00;14.90;102159.00;;;;5060816;28;20401;-64
2022/03/02 06:33:38;;;;;;;9.82;6.70;;;15.80;42.00;14.90;102165.00;;;;5063654;28;20028;-64
2022/03/02 06:36:24;;;;;;;10.70;7.00;;;15.80;41.90;14.90;102163.00;;;;5065712;28;20037;-64
2022/03/02 06:39:10;;;;;;;12.27;7.03;;;15.80;42.00;14.90;102173.00;;;;5062750;28;20051;-64
2022/03/02 06:42:27;;;;;;;9.52;6.60;;;15.80;41.90;14.90;102173.00;;;;5061377;28;20045;-64
2022/03/02 06:45:27;;;;;;;9.82;6.70;;;15.80;42.00;14.90;102180.00;;;;5051712;28;20071;-64
2022/03/02 06:48:20;;;;;;;8.13;6.18;;;15.80;41.90;14.90;102175.00;;;;5047493;28;20413;-63
2022/03/02 06:51:06;;;;;;;10.90;6.72;;;15.80;42.00;14.90;102179.00;;;;5060463;28;20037;-64
2022/03/02 06:53:52;;;;;;;10.57;6.95;;;15.70;41.90;14.90;102175.00;;;;5050979;28;20094;-64
2022/03/02 06:56:45;;;;;;;8.88;6.40;;;15.80;42.00;14.90;102166.00;;;;5058303;28;20078;-64
2022/03/02 06:59:43;;;;;;;9.88;6.57;;;15.80;42.00;14.90;102174.00;;;;5037876;28;20455;-64
2022/03/02 07:02:43;;;;;;;9.20;6.60;;;15.70;42.00;14.80;102161.00;;;;5052519;28;20047;-64
2022/03/02 07:05:30;;;;;;;8.50;6.28;;;15.70;42.00;14.80;102161.00;;;;5045704;28;20044;-64
2022/03/02 07:08:17;;;;;;;9.40;6.53;;;15.80;41.90;14.80;102163.00;;;;5048389;28;20047;-64
2022/03/02 07:11:04;;;;;;;;;;;15.70;41.90;14.80;102156.00;;;;5061951;28;20144;-64
2022/03/02 07:13:50;;;;;;;8.85;5.97;;;15.70;41.90;14.80;102155.00;;;;5044764;28;19919;-64
2022/03/02 07:16:36;;;;;;;8.77;6.35;;;15.70;41.80;14.80;102153.00;;;;5052019;28;20139;-64
2022/03/02 07:19:22;;;;;;;8.40;6.03;;;15.70;41.80;14.80;102160.00;;;;5037643;28;20087;-64
2022/03/02 07:22:08;;;;;;;9.68;6.45;;;15.70;41.80;14.80;102159.00;;;;5069974;28;20063;-64
2022/03/02 07:25:03;;;;;;;10.50;6.40;;;15.70;41.80;14.80;102168.00;;;;5035568;28;20070;-64
2022/03/02 07:27:50;;;;;;;8.95;6.47;;;15.70;41.90;14.80;102169.00;;;;5048056;28;20068;-64
2022/03/02 07:30:36;;;;;;;9.18;6.35;;;15.70;41.90;14.80;102179.00;;;;5062498;28;20038;-64
2022/03/02 07:33:22;;;;;;;7.70;6.15;;;15.70;41.90;14.80;102187.00;;;;5048314;28;20047;-64
2022/03/02 07:36:09;;;;;;;7.88;6.35;;;15.70;41.90;14.80;102185.00;;;;5049800;28;20048;-64
2022/03/02 07:38:55;;;;;;;11.35;6.18;;;15.70;41.90;14.80;102179.00;;;;5060248;28;20049;-64
2022/03/02 07:41:42;;;;;;;9.82;6.40;;;15.70;41.90;14.80;102188.00;;;;5045601;28;20048;-64
2022/03/02 07:44:28;;;;;;;10.32;6.43;;;15.70;41.90;14.80;102190.00;;;;5057748;28;20041;-64
2022/03/02 07:47:14;;;;;;;10.27;6.22;;;15.70;41.90;14.80;102186.00;;;;5046620;28;20075;-64
2022/03/02 07:50:00;;;;;;;9.27;5.90;;;15.70;41.90;14.80;102181.00;;;;5046406;28;20082;-64
2022/03/02 07:52:49;;;;;;;9.75;6.38;;;15.70;41.80;14.80;102182.00;;;;5046852;28;20044;-64
2022/03/02 07:55:35;;;;;;;8.40;6.30;;;15.70;41.90;14.80;102178.00;;;;5047836;28;20143;-64
2022/03/02 07:58:21;;;;;;;9.13;6.57;;;15.70;41.80;14.80;102172.00;;;;5064483;28;20064;-64
2022/03/02 08:01:20;;;;;;;8.65;6.38;;;15.70;41.90;14.80;102181.00;;;;5046348;28;20053;-64
2022/03/02 08:04:08;;;;;;;10.02;6.20;;;15.70;41.80;14.80;102172.00;;;;5061874;28;20116;-64
2022/03/02 08:06:54;;;;;;;11.50;6.28;;;15.70;41.80;14.80;102169.00;;;;5056714;28;20082;-64
2022/03/02 08:09:40;;;;;;;9.70;6.70;;;15.70;41.80;14.80;102158.00;;;;5054751;28;20689;-64
2022/03/02 08:12:26;;;;;;;8.85;5.95;;;15.70;41.70;14.80;102167.00;;;;5050446;28;20079;-64
2022/03/02 08:15:12;;;;;;;8.98;6.32;;;15.70;41.60;14.80;102164.00;;;;5053864;28;20529;-64
2022/03/02 08:17:59;;;;;;;9.05;6.38;;;15.70;41.50;14.70;102167.00;;;;5059233;28;20043;-64
2022/03/02 08:20:48;;;;;;;9.63;6.28;;;15.70;41.40;14.70;102166.00;;;;5038973;28;20037;-64
2022/03/02 08:23:40;;;;;;;9.80;6.25;;;15.70;41.30;14.70;102170.00;;;;5045157;28;20466;-64
2022/03/02 08:26:26;;;;;;;8.50;5.55;;;15.70;41.30;14.70;102171.00;;;;5044220;28;20519;-64
2022/03/02 08:29:12;;;;;;;9.13;5.57;;;15.70;41.30;14.70;102170.00;;;;5043004;28;20636;-64
2022/03/02 08:32:01;;;;;;;7.97;6.18;;;15.70;41.20;14.70;102159.00;;;;5057885;28;20589;-63
2022/03/02 08:34:47;;;;;;;8.38;5.93;;;15.70;41.10;14.70;102166.00;;;;5048662;28;20044;-64
2022/03/02 08:37:33;;;;;;;10.27;6.20;;;15.70;41.00;14.70;102151.00;;;;5047967;28;20040;-64
2022/03/02 08:40:19;;;;;;;9.10;5.93;;;15.70;41.00;14.70;102166.00;;;;5063205;28;20409;-64
2022/03/02 08:43:06;;;;;;;7.90;5.72;;;15.70;40.80;14.70;102160.00;;;;5058033;28;20049;-64
2022/03/02 08:45:55;;;;;;;8.85;5.70;;;15.70;40.90;14.70;102164.00;;;;5055420;28;20526;-64
2022/03/02 08:48:41;;;;;;;8.98;5.97;;;15.70;40.80;14.70;102156.00;;;;5055352;28;20440;-64
2022/03/02 08:51:27;;;;;;;8.70;5.57;;;15.60;40.70;14.70;102164.00;;;;5041991;28;20032;-63
2022/03/02 08:54:13;;;;;;;8.07;5.53;;;15.70;40.80;14.70;102162.00;;;;5044352;28;20517;-64
2022/03/02 08:56:59;;;;;;;8.88;5.70;;;15.70;40.70;14.70;102152.00;;;;5038712;28;20450;-64
2022/03/02 08:59:45;;;;;;;8.43;5.38;;;15.70;40.70;14.70;102150.00;;;;5047967;28;20051;-64
2022/03/02 09:02:31;;;;;;;8.18;4.97;;;15.60;40.60;14.70;102150.00;;;;5055595;28;20049;-64
2022/03/02 09:05:17;;;;;;;10.20;5.85;;;15.70;40.70;14.70;102146.00;;;;5034605;28;20033;-64
2022/03/02 09:08:04;;;;;;;7.90;5.75;;;15.70;39.90;14.70;102145.00;;;;5050456;28;20044;-64
2022/03/02 09:10:50;;;;;;;8.07;5.90;;;15.70;40.40;14.70;102140.00;;;;5055339;28;20045;-64
2022/03/02 09:13:37;;;;;;;8.52;5.45;;;15.70;40.40;14.70;102135.00;;;;5046081;28;20040;-64
2022/03/02 09:16:23;;;;;;;7.22;5.35;;;15.70;40.40;14.70;102140.00;;;;5058327;28;20573;-64
2022/03/02 09:19:10;;;;;;;7.68;5.68;;;15.70;40.40;14.70;102136.00;;;;5056587;28;20052;-64
2022/03/02 09:21:56;;;;;;;7.93;4.80;;;15.70;40.30;14.80;102141.00;;;;5061923;28;20098;-64
2022/03/02 09:24:43;;;;;;;9.48;5.82;;;15.70;40.30;14.80;102144.00;;;;5042740;28;20044;-64
2022/03/02 09:27:30;;;;;;;8.27;5.50;;;15.70;40.20;14.80;102143.00;;;;5050481;28;20047;-64
2022/03/02 09:30:16;;;;;;;8.88;5.63;;;15.80;39.80;14.80;102139.00;;;;5049506;28;20052;-64
2022/03/02 09:33:02;;;;;;;7.68;5.22;;;15.70;40.10;14.80;102139.00;;;;5063961;28;20033;-64
2022/03/02 09:35:49;;;;;;;7.95;5.15;;;15.80;40.10;14.80;102133.00;;;;5053269;28;20119;-64
2022/03/02 09:38:36;;;;;;;7.72;5.32;;;15.80;39.90;14.80;102127.00;;;;5048514;28;20043;-64
2022/03/02 09:41:40;;;;;;;8.27;5.18;;;15.80;40.00;14.80;102134.00;;;;5058307;28;20119;-64
2022/03/02 09:44:46;;;;;;;6.07;4.70;;;15.80;39.90;14.90;102138.00;;;;5049991;28;20405;-64
2022/03/02 09:47:44;;;;;;;7.85;4.82;;;15.80;39.90;14.80;102140.00;;;;5044122;28;20391;-64
2022/03/02 09:50:35;;;;;;;8.95;5.97;;;15.80;39.50;14.80;102129.00;;;;5050823;28;20049;-64
2022/03/02 09:53:21;;;;;;;7.05;5.25;;;15.80;39.80;14.90;102138.00;;;;5044407;28;20131;-64
2022/03/02 09:56:07;;;;;;;6.38;4.55;;;15.90;39.90;14.90;102132.00;;;;5044628;28;20055;-64
2022/03/02 09:58:53;;;;;;;7.35;4.80;;;15.90;39.90;14.90;102134.00;;;;5061340;28;20032;-64
2022/03/02 10:01:41;;;;;;;7.47;5.07;;;15.90;39.90;14.90;102132.00;;;;5059953;28;20123;-64
2022/03/02 10:04:28;;;;;;;7.63;4.80;;;15.90;39.90;14.90;102135.00;;;;5051926;28;20045;-64
2022/03/02 10:07:26;;;;;;;6.35;4.63;;;15.90;39.80;14.90;102142.00;;;;5052764;28;20128;-64
2022/03/02 10:10:22;;;;;;;7.75;4.68;;;15.90;39.80;15.00;102137.00;;;;5039147;28;20230;-64
2022/03/02 10:13:10;;;;;;;7.38;4.72;;;15.90;39.70;15.00;102130.00;;;;5049042;28;20033;-64
2022/03/02 10:15:56;;;;;;;7.00;4.70;;;16.00;39.80;15.00;102131.00;;;;5061732;28;20032;-64
2022/03/02 10:18:42;;;;;;;7.40;4.57;;;16.00;39.70;15.00;102130.00;;;;5047094;28;20033;-64
2022/03/02 10:21:40;;;;;;;7.15;4.97;;;16.00;39.70;15.00;102121.00;;;;5029861;28;20128;-66
2022/03/02 10:24:26;;;;;;;8.57;4.85;;;16.00;39.60;15.00;102114.00;;;;5043706;28;20087;-64
2022/03/02 10:27:33;;;;;;;8.05;4.72;;;16.00;39.60;15.00;102115.00;;;;5038442;28;20035;-64
2022/03/02 10:30:19;;;;;;;6.22;4.72;;;16.00;39.50;15.00;102115.00;;;;5028869;28;20045;-64
2022/03/02 10:33:22;;;;;;;7.93;5.03;;;16.10;39.60;15.00;102108.00;;;;5054246;28;20083;-64
2022/03/02 10:36:10;;;;;;;6.03;4.03;;;16.00;39.40;15.00;102100.00;;;;5042766;28;20117;-64
2022/03/02 10:38:59;;;;;;;6.85;4.80;;;16.10;39.50;15.00;102102.00;;;;5046405;28;20036;-64
2022/03/02 10:41:45;;;;;;;6.95;4.65;;;16.10;39.50;15.00;102101.00;;;;5058226;28;20079;-64
2022/03/02 10:45:05;;;;;;;7.97;4.82;;;16.10;39.50;15.00;102098.00;;;;5048839;28;20048;-64
2022/03/02 10:48:07;;;;;;;;;;;16.10;39.40;15.00;102095.00;;;;5058979;28;20029;-64
2022/03/02 10:50:54;;;;;;;7.40;3.90;;;16.10;39.70;15.00;102101.00;;;;5057039;28;19913;-64
2022/03/02 10:53:40;;;;;;;6.55;4.78;;;16.20;39.40;15.00;102096.00;;;;5051401;28;20478;-64
2022/03/02 10:56:27;;;;;;;8.52;5.43;;;16.10;38.70;15.00;102097.00;;;;5038010;28;20029;-64
2022/03/02 10:59:17;;;;;;;8.77;4.82;;;16.10;38.20;15.00;102097.00;;;;5043944;28;20041;-64
2022/03/02 11:02:04;;;;;;;6.65;4.60;;;16.10;39.20;15.00;102092.00;;;;5061591;28;20036;-63
2022/03/02 11:04:54;;;;;;;8.30;4.93;;;16.20;39.30;15.00;102096.00;;;;5041091;28;20040;-64
2022/03/02 11:07:41;;;;;;;7.28;4.57;;;16.10;39.00;15.00;102099.00;;;;5041946;28;20036;-64
2022/03/02 11:10:33;;;;;;;6.65;4.65;;;16.10;39.40;15.00;102090.00;;;;5046588;28;20398;-63
2022/03/02 11:13:19;;;;;;;8.05;4.45;;;16.10;39.40;15.00;102091.00;;;;5058692;28;20102;-64
2022/03/02 11:16:05;;;;;;;7.03;4.30;;;16.10;39.40;15.10;102092.00;;;;5028463;28;20399;-64
2022/03/02 11:18:52;;;;;;;9.15;4.82;;;16.10;39.40;15.10;102092.00;;;;5037338;28;20033;-64
2022/03/02 11:21:40;;;;;;;6.40;3.97;;;16.10;39.40;15.10;102088.00;;;;5050437;28;20517;-64
2022/03/02 11:24:26;;;;;;;7.68;4.63;;;16.10;39.40;15.10;102079.00;;;;5047327;28;20093;-64
2022/03/02 11:27:39;;;;;;;6.38;4.40;;;16.20;39.40;15.20;102078.00;;;;5045332;28;20387;-64
2022/03/02 11:30:25;;;;;;;6.63;4.03;;;16.20;39.30;15.20;102074.00;;;;5047634;28;20041;-64
2022/03/02 11:33:11;;;;;;;6.80;3.95;;;16.20;39.30;15.20;102061.00;;;;5060013;28;20048;-64
2022/03/02 11:36:11;;;;;;;6.00;3.90;;;16.20;39.30;15.20;102061.00;;;;5049394;28;20595;-64
2022/03/02 11:38:57;;;;;;;6.95;3.72;;;16.20;39.20;15.20;102058.00;;;;5063808;28;20033;-64
2022/03/02 11:41:46;;;;;;;7.25;4.18;;;16.20;39.10;15.20;102062.00;;;;5044394;28;20033;-64
2022/03/02 11:44:41;;;;;;;5.38;3.75;;;16.20;39.00;15.20;102052.00;;;;5040535;28;20491;-64
2022/03/02 11:47:35;;;;;;;5.38;3.53;;;16.30;39.00;15.30;102045.00;;;;5051989;28;20048;-63
2022/03/02 11:50:21;;;;;;;7.82;3.65;;;16.30;38.90;15.30;102044.00;;;;5063919;28;20501;-64
2022/03/02 11:53:08;;;;;;;6.43;4.03;;;16.30;39.00;15.30;102040.00;;;;5061215;28;20052;-64
2022/03/02 11:55:55;;;;;;;5.40;3.58;;;16.30;39.00;15.30;102046.00;;;;5060094;28;20612;-64
2022/03/02 11:59:09;;;;;;;4.28;3.10;;;16.20;38.90;15.30;102040.00;;;;5063265;28;20106;-64
2022/03/02 12:01:55;;;;;;;5.38;3.60;;;16.30;38.90;15.30;102035.00;;;;5061224;28;20044;-64
2022/03/02 12:05:01;;;;;;;5.43;3.55;;;16.40;39.00;15.30;102031.00;;;;5061803;28;20464;-63
2022/03/02 12:07:49;;;;;;;6.60;3.35;;;16.40;38.90;15.30;102029.00;;;;5032950;28;20575;-64
2022/03/02 12:10:40;;;;;;;;;;;16.40;38.80;15.30;102025.00;;;;5060931;28;20062;-64
2022/03/02 12:13:26;;;;;;;4.72;3.30;;;16.40;39.20;15.30;102023.00;;;;5059544;28;19922;-64
2022/03/02 12:16:12;;;;;;;4.20;3.38;;;16.40;38.80;15.30;102008.00;;;;5062188;28;20564;-64